sensor_id;sensor_type;location;lat;lon;timestamp;pressure;altitude;pressure_sealevel;temperature;humidity
23339;BME280;11841;49.368;20.962;2024-01-30T00:00:14;97744.72;;;-2.72;75.39
23339;BME280;11841;49.368;20.962;2024-01-30T00:03:00;97742.84;;;-2.70;75.47
23339;BME280;11841;49.368;20.962;2024-01-30T00:05:45;97748.13;;;-2.71;75.32
23339;BME280;11841;49.368;20.962;2024-01-30T00:08:30;97746.47;;;-2.72;75.02
23339;BME280;11841;49.368;20.962;2024-01-30T00:11:16;97742.13;;;-2.72;75.33
23339;BME280;11841;49.368;20.962;2024-01-30T00:14:02;97737.00;;;-2.73;75.29
23339;BME280;11841;49.368;20.962;2024-01-30T00:16:48;97732.66;;;-2.73;75.51
23339;BME280;11841;49.368;20.962;2024-01-30T00:19:33;97742.03;;;-2.70;75.54
23339;BME280;11841;49.368;20.962;2024-01-30T00:22:19;97743.59;;;-2.68;75.38
23339;BME280;11841;49.368;20.962;2024-01-30T00:25:04;97746.22;;;-2.68;75.38
23339;BME280;11841;49.368;20.962;2024-01-30T00:27:52;97748.88;;;-2.69;75.36
23339;BME280;11841;49.368;20.962;2024-01-30T00:30:37;97748.03;;;-2.70;75.46
23339;BME280;11841;49.368;20.962;2024-01-30T00:33:22;97745.63;;;-2.73;75.38
23339;BME280;11841;49.368;20.962;2024-01-30T00:36:08;97747.31;;;-2.72;75.65
23339;BME280;11841;49.368;20.962;2024-01-30T00:38:53;97741.84;;;-2.67;76.05
23339;BME280;11841;49.368;20.962;2024-01-30T00:41:38;97740.84;;;-2.65;75.97
23339;BME280;11841;49.368;20.962;2024-01-30T00:44:24;97747.53;;;-2.61;76.12
23339;BME280;11841;49.368;20.962;2024-01-30T00:47:09;97741.16;;;-2.55;76.52
23339;BME280;11841;49.368;20.962;2024-01-30T00:49:54;97743.47;;;-2.51;76.40
23339;BME280;11841;49.368;20.962;2024-01-30T00:52:40;97742.22;;;-2.43;76.47
23339;BME280;11841;49.368;20.962;2024-01-30T00:55:26;97742.78;;;-2.38;76.70
23339;BME280;11841;49.368;20.962;2024-01-30T00:58:12;97742.59;;;-2.35;76.99
23339;BME280;11841;49.368;20.962;2024-01-30T01:00:57;97742.25;;;-2.29;78.45
23339;BME280;11841;49.368;20.962;2024-01-30T01:03:43;97740.97;;;-2.22;77.63
23339;BME280;11841;49.368;20.962;2024-01-30T01:06:29;97743.41;;;-2.19;78.00
23339;BME280;11841;49.368;20.962;2024-01-30T01:09:14;97745.72;;;-2.15;77.67
23339;BME280;11841;49.368;20.962;2024-01-30T01:11:59;97751.38;;;-2.08;78.54
23339;BME280;11841;49.368;20.962;2024-01-30T01:14:44;97749.53;;;-2.06;78.80
23339;BME280;11841;49.368;20.962;2024-01-30T01:17:30;97748.25;;;-1.99;78.50
23339;BME280;11841;49.368;20.962;2024-01-30T01:20:15;97740.81;;;-1.91;78.40
23339;BME280;11841;49.368;20.962;2024-01-30T01:23:00;97745.03;;;-1.89;79.86
23339;BME280;11841;49.368;20.962;2024-01-30T01:25:45;97738.69;;;-1.85;79.03
23339;BME280;11841;49.368;20.962;2024-01-30T01:28:30;97734.00;;;-1.78;78.79
23339;BME280;11841;49.368;20.962;2024-01-30T01:31:16;97740.66;;;-1.74;78.81
23339;BME280;11841;49.368;20.962;2024-01-30T01:34:03;97739.66;;;-1.72;79.61
23339;BME280;11841;49.368;20.962;2024-01-30T01:36:48;97745.22;;;-1.64;79.05
23339;BME280;11841;49.368;20.962;2024-01-30T01:39:34;97739.56;;;-1.56;79.22
23339;BME280;11841;49.368;20.962;2024-01-30T01:42:19;97738.31;;;-1.51;80.04
23339;BME280;11841;49.368;20.962;2024-01-30T01:45:04;97738.06;;;-1.46;80.19
23339;BME280;11841;49.368;20.962;2024-01-30T01:47:50;97729.88;;;-1.40;79.49
23339;BME280;11841;49.368;20.962;2024-01-30T01:50:36;97731.25;;;-1.35;79.31
23339;BME280;11841;49.368;20.962;2024-01-30T01:53:22;97733.97;;;-1.36;79.97
23339;BME280;11841;49.368;20.962;2024-01-30T01:56:08;97730.41;;;-1.35;79.69
23339;BME280;11841;49.368;20.962;2024-01-30T01:58:54;97731.72;;;-1.28;79.61
23339;BME280;11841;49.368;20.962;2024-01-30T02:01:39;97735.63;;;-1.21;80.02
23339;BME280;11841;49.368;20.962;2024-01-30T02:04:28;97732.50;;;-1.13;79.71
23339;BME280;11841;49.368;20.962;2024-01-30T02:07:14;97726.09;;;-1.08;80.55
23339;BME280;11841;49.368;20.962;2024-01-30T02:09:59;97729.25;;;-1.03;81.63
23339;BME280;11841;49.368;20.962;2024-01-30T02:12:44;97731.53;;;-0.98;82.65
23339;BME280;11841;49.368;20.962;2024-01-30T02:15:30;97726.97;;;-0.95;83.59
23339;BME280;11841;49.368;20.962;2024-01-30T02:18:15;97728.38;;;-0.89;83.54
23339;BME280;11841;49.368;20.962;2024-01-30T02:21:04;97721.84;;;-0.82;83.42
23339;BME280;11841;49.368;20.962;2024-01-30T02:23:49;97712.81;;;-0.77;83.06
23339;BME280;11841;49.368;20.962;2024-01-30T02:26:35;97716.69;;;-0.70;82.56
23339;BME280;11841;49.368;20.962;2024-01-30T02:29:21;97714.72;;;-0.66;81.99
23339;BME280;11841;49.368;20.962;2024-01-30T02:32:06;97714.63;;;-0.65;82.89
23339;BME280;11841;49.368;20.962;2024-01-30T02:34:52;97712.53;;;-0.60;82.92
23339;BME280;11841;49.368;20.962;2024-01-30T02:37:37;97720.16;;;-0.57;83.36
23339;BME280;11841;49.368;20.962;2024-01-30T02:40:23;97713.63;;;-0.50;83.04
23339;BME280;11841;49.368;20.962;2024-01-30T02:43:08;97713.41;;;-0.47;82.79
23339;BME280;11841;49.368;20.962;2024-01-30T02:45:53;97711.31;;;-0.42;82.99
23339;BME280;11841;49.368;20.962;2024-01-30T02:48:39;97716.31;;;-0.39;83.24
23339;BME280;11841;49.368;20.962;2024-01-30T02:51:24;97713.44;;;-0.34;82.85
23339;BME280;11841;49.368;20.962;2024-01-30T02:54:09;97712.59;;;-0.35;82.74
23339;BME280;11841;49.368;20.962;2024-01-30T02:56:54;97720.09;;;-0.30;82.90
23339;BME280;11841;49.368;20.962;2024-01-30T02:59:41;97717.84;;;-0.22;83.50
23339;BME280;11841;49.368;20.962;2024-01-30T03:02:27;97709.72;;;-0.18;83.13
23339;BME280;11841;49.368;20.962;2024-01-30T03:05:12;97718.25;;;-0.16;82.43
23339;BME280;11841;49.368;20.962;2024-01-30T03:07:57;97714.50;;;-0.12;82.61
23339;BME280;11841;49.368;20.962;2024-01-30T03:10:43;97716.19;;;-0.11;82.62
23339;BME280;11841;49.368;20.962;2024-01-30T03:13:28;97722.13;;;-0.09;82.13
23339;BME280;11841;49.368;20.962;2024-01-30T03:16:13;97723.91;;;-0.09;82.38
23339;BME280;11841;49.368;20.962;2024-01-30T03:18:59;97712.41;;;-0.07;82.45
23339;BME280;11841;49.368;20.962;2024-01-30T03:21:46;97714.84;;;-0.04;82.21
23339;BME280;11841;49.368;20.962;2024-01-30T03:24:31;97722.66;;;-0.04;82.55
23339;BME280;11841;49.368;20.962;2024-01-30T03:27:16;97702.44;;;0.00;81.87
23339;BME280;11841;49.368;20.962;2024-01-30T03:30:02;97716.19;;;0.02;81.89
23339;BME280;11841;49.368;20.962;2024-01-30T03:32:47;97709.94;;;0.05;82.33
23339;BME280;11841;49.368;20.962;2024-01-30T03:35:33;97703.75;;;0.06;81.85
23339;BME280;11841;49.368;20.962;2024-01-30T03:38:18;97706.38;;;0.06;81.83
23339;BME280;11841;49.368;20.962;2024-01-30T03:41:03;97716.00;;;0.05;81.94
23339;BME280;11841;49.368;20.962;2024-01-30T03:43:49;97700.22;;;0.07;82.10
23339;BME280;11841;49.368;20.962;2024-01-30T03:46:34;97707.00;;;0.09;81.76
23339;BME280;11841;49.368;20.962;2024-01-30T03:49:19;97700.75;;;0.12;82.04
23339;BME280;11841;49.368;20.962;2024-01-30T03:52:05;97696.47;;;0.11;81.72
23339;BME280;11841;49.368;20.962;2024-01-30T03:54:50;97700.75;;;0.12;81.95
23339;BME280;11841;49.368;20.962;2024-01-30T03:57:35;97693.66;;;0.14;82.17
23339;BME280;11841;49.368;20.962;2024-01-30T04:00:21;97698.97;;;0.12;81.83
23339;BME280;11841;49.368;20.962;2024-01-30T04:03:06;97694.59;;;0.13;81.59
23339;BME280;11841;49.368;20.962;2024-01-30T04:05:52;97692.81;;;0.13;81.89
23339;BME280;11841;49.368;20.962;2024-01-30T04:08:38;97691.88;;;0.14;81.92
23339;BME280;11841;49.368;20.962;2024-01-30T04:11:23;97693.44;;;0.17;82.15
23339;BME280;11841;49.368;20.962;2024-01-30T04:14:08;97697.59;;;0.19;82.02
23339;BME280;11841;49.368;20.962;2024-01-30T04:16:54;97690.00;;;0.16;81.96
23339;BME280;11841;49.368;20.962;2024-01-30T04:19:39;97688.53;;;0.12;81.65
23339;BME280;11841;49.368;20.962;2024-01-30T04:22:24;97691.97;;;0.13;81.94
23339;BME280;11841;49.368;20.962;2024-01-30T04:25:11;97689.38;;;0.13;81.66
23339;BME280;11841;49.368;20.962;2024-01-30T04:27:56;97685.91;;;0.12;81.82
23339;BME280;11841;49.368;20.962;2024-01-30T04:30:41;97691.06;;;0.14;81.88
23339;BME280;11841;49.368;20.962;2024-01-30T04:33:26;97691.13;;;0.12;81.37
23339;BME280;11841;49.368;20.962;2024-01-30T04:36:11;97685.00;;;0.13;81.49
23339;BME280;11841;49.368;20.962;2024-01-30T04:38:56;97687.81;;;0.10;81.59
23339;BME280;11841;49.368;20.962;2024-01-30T04:41:42;97691.97;;;0.13;81.44
23339;BME280;11841;49.368;20.962;2024-01-30T04:44:27;97696.28;;;0.14;81.10
23339;BME280;11841;49.368;20.962;2024-01-30T04:47:12;97695.94;;;0.06;80.98
23339;BME280;11841;49.368;20.962;2024-01-30T04:49:58;97697.81;;;0.03;81.36
23339;BME280;11841;49.368;20.962;2024-01-30T04:52:43;97698.53;;;0.06;81.12
23339;BME280;11841;49.368;20.962;2024-01-30T04:55:28;97697.63;;;0.07;81.07
23339;BME280;11841;49.368;20.962;2024-01-30T04:58:14;97691.47;;;0.08;81.00
23339;BME280;11841;49.368;20.962;2024-01-30T05:00:59;97703.13;;;0.02;80.96
23339;BME280;11841;49.368;20.962;2024-01-30T05:03:44;97702.44;;;0.00;81.37
23339;BME280;11841;49.368;20.962;2024-01-30T05:06:30;97699.59;;;0.03;80.79
23339;BME280;11841;49.368;20.962;2024-01-30T05:09:15;97697.09;;;0.02;80.42
23339;BME280;11841;49.368;20.962;2024-01-30T05:12:00;97699.91;;;-0.02;80.60
23339;BME280;11841;49.368;20.962;2024-01-30T05:14:46;97706.28;;;-0.06;80.19
23339;BME280;11841;49.368;20.962;2024-01-30T05:17:31;97710.97;;;-0.11;80.41
23339;BME280;11841;49.368;20.962;2024-01-30T05:20:17;97702.63;;;-0.16;79.95
23339;BME280;11841;49.368;20.962;2024-01-30T05:23:02;97703.13;;;-0.23;79.81
23339;BME280;11841;49.368;20.962;2024-01-30T05:25:47;97710.09;;;-0.24;79.73
23339;BME280;11841;49.368;20.962;2024-01-30T05:28:33;97706.56;;;-0.23;80.24
23339;BME280;11841;49.368;20.962;2024-01-30T05:31:18;97694.97;;;-0.19;79.89
23339;BME280;11841;49.368;20.962;2024-01-30T05:34:03;97696.88;;;-0.21;79.89
23339;BME280;11841;49.368;20.962;2024-01-30T05:36:49;97699.88;;;-0.27;79.82
23339;BME280;11841;49.368;20.962;2024-01-30T05:39:34;97701.75;;;-0.29;79.88
23339;BME280;11841;49.368;20.962;2024-01-30T05:42:20;97698.22;;;-0.28;80.21
23339;BME280;11841;49.368;20.962;2024-01-30T05:45:05;97692.16;;;-0.28;79.74
23339;BME280;11841;49.368;20.962;2024-01-30T05:47:51;97693.13;;;-0.29;80.03
23339;BME280;11841;49.368;20.962;2024-01-30T05:50:36;97697.38;;;-0.28;79.59
23339;BME280;11841;49.368;20.962;2024-01-30T05:53:21;97702.06;;;-0.33;79.84
23339;BME280;11841;49.368;20.962;2024-01-30T05:56:07;97703.66;;;-0.31;80.10
23339;BME280;11841;49.368;20.962;2024-01-30T05:58:52;97705.09;;;-0.27;79.72
23339;BME280;11841;49.368;20.962;2024-01-30T06:01:37;97705.50;;;-0.33;79.37
23339;BME280;11841;49.368;20.962;2024-01-30T06:04:23;97711.66;;;-0.34;80.08
23339;BME280;11841;49.368;20.962;2024-01-30T06:07:08;97715.72;;;-0.30;79.58
23339;BME280;11841;49.368;20.962;2024-01-30T06:09:53;97717.22;;;-0.26;79.76
23339;BME280;11841;49.368;20.962;2024-01-30T06:12:39;97717.09;;;-0.24;79.86
23339;BME280;11841;49.368;20.962;2024-01-30T06:15:24;97717.75;;;-0.21;79.42
23339;BME280;11841;49.368;20.962;2024-01-30T06:18:09;97725.34;;;-0.18;79.46
23339;BME280;11841;49.368;20.962;2024-01-30T06:20:55;97721.78;;;-0.17;79.43
23339;BME280;11841;49.368;20.962;2024-01-30T06:23:40;97715.56;;;-0.14;79.72
23339;BME280;11841;49.368;20.962;2024-01-30T06:26:25;97721.41;;;-0.11;79.74
23339;BME280;11841;49.368;20.962;2024-01-30T06:29:10;97724.94;;;-0.12;79.56
23339;BME280;11841;49.368;20.962;2024-01-30T06:31:56;97727.75;;;-0.15;79.32
23339;BME280;11841;49.368;20.962;2024-01-30T06:34:42;97725.34;;;-0.18;79.52
23339;BME280;11841;49.368;20.962;2024-01-30T06:37:29;97731.47;;;-0.19;80.00
23339;BME280;11841;49.368;20.962;2024-01-30T06:40:14;97724.28;;;-0.15;79.54
23339;BME280;11841;49.368;20.962;2024-01-30T06:43:00;97728.47;;;-0.13;79.69
23339;BME280;11841;49.368;20.962;2024-01-30T06:45:45;97734.63;;;-0.14;79.94
23339;BME280;11841;49.368;20.962;2024-01-30T06:48:31;97723.25;;;-0.13;80.01
23339;BME280;11841;49.368;20.962;2024-01-30T06:51:16;97727.44;;;-0.10;80.29
23339;BME280;11841;49.368;20.962;2024-01-30T06:54:02;97730.88;;;-0.10;80.45
23339;BME280;11841;49.368;20.962;2024-01-30T06:56:47;97725.75;;;-0.11;80.38
23339;BME280;11841;49.368;20.962;2024-01-30T06:59:32;97736.19;;;-0.11;80.11
23339;BME280;11841;49.368;20.962;2024-01-30T07:02:18;97728.59;;;-0.14;79.97
23339;BME280;11841;49.368;20.962;2024-01-30T07:05:03;97732.44;;;-0.20;80.20
23339;BME280;11841;49.368;20.962;2024-01-30T07:07:49;97729.09;;;-0.22;79.91
23339;BME280;11841;49.368;20.962;2024-01-30T07:10:34;97727.44;;;-0.23;80.37
23339;BME280;11841;49.368;20.962;2024-01-30T07:13:20;97730.03;;;-0.23;80.10
23339;BME280;11841;49.368;20.962;2024-01-30T07:16:05;97735.25;;;-0.23;80.55
23339;BME280;11841;49.368;20.962;2024-01-30T07:18:51;97729.09;;;-0.22;80.64
23339;BME280;11841;49.368;20.962;2024-01-30T07:21:37;97735.88;;;-0.19;80.58
23339;BME280;11841;49.368;20.962;2024-01-30T07:24:25;97739.31;;;-0.19;80.47
23339;BME280;11841;49.368;20.962;2024-01-30T07:27:10;97736.91;;;-0.22;80.29
23339;BME280;11841;49.368;20.962;2024-01-30T07:29:55;97737.66;;;-0.20;80.08
23339;BME280;11841;49.368;20.962;2024-01-30T07:32:40;97735.78;;;-0.18;80.17
23339;BME280;11841;49.368;20.962;2024-01-30T07:35:26;97734.63;;;-0.14;80.31
23339;BME280;11841;49.368;20.962;2024-01-30T07:38:11;97740.03;;;-0.17;79.92
23339;BME280;11841;49.368;20.962;2024-01-30T07:40:56;97735.13;;;-0.21;79.89
23339;BME280;11841;49.368;20.962;2024-01-30T07:43:42;97738.25;;;-0.29;79.43
23339;BME280;11841;49.368;20.962;2024-01-30T07:46:30;97738.75;;;-0.36;79.47
23339;BME280;11841;49.368;20.962;2024-01-30T07:49:16;97731.44;;;-0.44;79.69
23339;BME280;11841;49.368;20.962;2024-01-30T07:52:01;97736.97;;;-0.48;79.15
23339;BME280;11841;49.368;20.962;2024-01-30T07:54:47;97728.59;;;-0.53;79.17
23339;BME280;11841;49.368;20.962;2024-01-30T07:57:32;97722.03;;;-0.59;79.55
23339;BME280;11841;49.368;20.962;2024-01-30T08:00:17;97717.84;;;-0.61;79.06
23339;BME280;11841;49.368;20.962;2024-01-30T08:03:03;97723.13;;;-0.63;78.97
23339;BME280;11841;49.368;20.962;2024-01-30T08:05:48;97723.13;;;-0.63;79.56
23339;BME280;11841;49.368;20.962;2024-01-30T08:08:33;97727.53;;;-0.63;79.26
23339;BME280;11841;49.368;20.962;2024-01-30T08:11:22;97721.47;;;-0.64;79.15
23339;BME280;11841;49.368;20.962;2024-01-30T08:14:12;97723.34;;;-0.66;79.24
23339;BME280;11841;49.368;20.962;2024-01-30T08:16:59;97719.28;;;-0.70;79.13
23339;BME280;11841;49.368;20.962;2024-01-30T08:19:44;97718.53;;;-0.72;79.09
23339;BME280;11841;49.368;20.962;2024-01-30T08:22:29;97721.34;;;-0.75;78.85
23339;BME280;11841;49.368;20.962;2024-01-30T08:25:15;97723.97;;;-0.75;79.07
23339;BME280;11841;49.368;20.962;2024-01-30T08:28:00;97730.81;;;-0.74;79.30
23339;BME280;11841;49.368;20.962;2024-01-30T08:30:46;97724.66;;;-0.73;79.34
23339;BME280;11841;49.368;20.962;2024-01-30T08:33:33;97717.91;;;-0.75;79.02
23339;BME280;11841;49.368;20.962;2024-01-30T08:36:18;97716.22;;;-0.76;79.43
23339;BME280;11841;49.368;20.962;2024-01-30T08:39:03;97714.34;;;-0.74;79.42
23339;BME280;11841;49.368;20.962;2024-01-30T08:41:50;97719.56;;;-0.74;78.94
23339;BME280;11841;49.368;20.962;2024-01-30T08:44:36;97718.75;;;-0.75;79.48
23339;BME280;11841;49.368;20.962;2024-01-30T08:47:21;97722.91;;;-0.72;79.57
23339;BME280;11841;49.368;20.962;2024-01-30T08:50:07;97714.78;;;-0.68;79.67
23339;BME280;11841;49.368;20.962;2024-01-30T08:52:52;97723.06;;;-0.61;79.74
23339;BME280;11841;49.368;20.962;2024-01-30T08:55:37;97714.84;;;-0.55;79.73
23339;BME280;11841;49.368;20.962;2024-01-30T08:58:24;97714.00;;;-0.56;79.21
23339;BME280;11841;49.368;20.962;2024-01-30T09:01:12;97707.22;;;-0.58;79.09
23339;BME280;11841;49.368;20.962;2024-01-30T09:04:02;97715.97;;;-0.59;79.48
23339;BME280;11841;49.368;20.962;2024-01-30T09:06:47;97704.09;;;-0.63;79.72
23339;BME280;11841;49.368;20.962;2024-01-30T09:09:33;97712.72;;;-0.63;79.68
23339;BME280;11841;49.368;20.962;2024-01-30T09:12:18;97716.06;;;-0.61;80.11
23339;BME280;11841;49.368;20.962;2024-01-30T09:15:05;97706.59;;;-0.62;79.70
23339;BME280;11841;49.368;20.962;2024-01-30T09:17:50;97699.63;;;-0.61;80.17
23339;BME280;11841;49.368;20.962;2024-01-30T09:20:35;97702.94;;;-0.59;79.91
23339;BME280;11841;49.368;20.962;2024-01-30T09:23:21;97697.72;;;-0.59;80.20
23339;BME280;11841;49.368;20.962;2024-01-30T09:26:06;97702.94;;;-0.59;80.06
23339;BME280;11841;49.368;20.962;2024-01-30T09:28:51;97698.66;;;-0.60;79.91
23339;BME280;11841;49.368;20.962;2024-01-30T09:31:36;97702.13;;;-0.60;80.06
23339;BME280;11841;49.368;20.962;2024-01-30T09:34:22;97698.56;;;-0.59;79.87
23339;BME280;11841;49.368;20.962;2024-01-30T09:37:07;97702.13;;;-0.60;80.05
23339;BME280;11841;49.368;20.962;2024-01-30T09:39:52;97697.81;;;-0.61;79.66
23339;BME280;11841;49.368;20.962;2024-01-30T09:42:38;97704.00;;;-0.62;80.09
23339;BME280;11841;49.368;20.962;2024-01-30T09:45:25;97700.31;;;-0.59;80.17
23339;BME280;11841;49.368;20.962;2024-01-30T09:48:11;97698.56;;;-0.59;79.67
23339;BME280;11841;49.368;20.962;2024-01-30T09:50:57;97695.22;;;-0.61;80.06
23339;BME280;11841;49.368;20.962;2024-01-30T09:53:42;97691.50;;;-0.57;79.89
23339;BME280;11841;49.368;20.962;2024-01-30T09:56:29;97686.06;;;-0.54;80.26
23339;BME280;11841;49.368;20.962;2024-01-30T09:59:14;97677.53;;;-0.56;79.98
23339;BME280;11841;49.368;20.962;2024-01-30T10:01:59;97679.22;;;-0.55;80.10
23339;BME280;11841;49.368;20.962;2024-01-30T10:04:49;97668.56;;;-0.52;79.97
23339;BME280;11841;49.368;20.962;2024-01-30T10:07:35;97673.56;;;-0.49;80.49
23339;BME280;11841;49.368;20.962;2024-01-30T10:10:23;97665.66;;;-0.47;80.35
23339;BME280;11841;49.368;20.962;2024-01-30T10:13:09;97667.97;;;-0.43;80.51
23339;BME280;11841;49.368;20.962;2024-01-30T10:15:55;97661.09;;;-0.31;80.93
23339;BME280;11841;49.368;20.962;2024-01-30T10:18:41;97662.53;;;-0.27;80.64
23339;BME280;11841;49.368;20.962;2024-01-30T10:21:29;97653.91;;;-0.28;80.90
23339;BME280;11841;49.368;20.962;2024-01-30T10:24:14;97648.59;;;-0.26;80.65
23339;BME280;11841;49.368;20.962;2024-01-30T10:27:00;97637.31;;;-0.27;80.81
23339;BME280;11841;49.368;20.962;2024-01-30T10:29:48;97638.59;;;-0.20;81.05
23339;BME280;11841;49.368;20.962;2024-01-30T10:32:33;97635.75;;;-0.17;81.31
23339;BME280;11841;49.368;20.962;2024-01-30T10:35:22;97628.44;;;-0.12;81.26
23339;BME280;11841;49.368;20.962;2024-01-30T10:38:10;97631.59;;;-0.07;80.96
23339;BME280;11841;49.368;20.962;2024-01-30T10:41:00;97623.34;;;-0.01;81.09
23339;BME280;11841;49.368;20.962;2024-01-30T10:43:50;97618.66;;;0.05;81.22
23339;BME280;11841;49.368;20.962;2024-01-30T10:46:42;97620.00;;;0.10;81.50
23339;BME280;11841;49.368;20.962;2024-01-30T10:49:27;97617.06;;;0.15;81.57
23339;BME280;11841;49.368;20.962;2024-01-30T10:52:13;97614.03;;;0.21;81.55
23339;BME280;11841;49.368;20.962;2024-01-30T10:55:06;97614.34;;;0.29;81.69
23339;BME280;11841;49.368;20.962;2024-01-30T10:57:52;97613.69;;;0.38;81.37
23339;BME280;11841;49.368;20.962;2024-01-30T11:00:39;97603.63;;;0.44;81.81
23339;BME280;11841;49.368;20.962;2024-01-30T11:03:24;97603.81;;;0.54;81.54
23339;BME280;11841;49.368;20.962;2024-01-30T11:06:10;97597.00;;;0.64;81.93
23339;BME280;11841;49.368;20.962;2024-01-30T11:09:03;97599.88;;;0.72;82.15
23339;BME280;11841;49.368;20.962;2024-01-30T11:11:58;97599.97;;;0.83;82.26
23339;BME280;11841;49.368;20.962;2024-01-30T11:14:47;97586.22;;;0.92;82.30
23339;BME280;11841;49.368;20.962;2024-01-30T11:20:27;97594.38;;;1.11;82.74
23339;BME280;11841;49.368;20.962;2024-01-30T11:23:16;97581.44;;;1.20;82.82
23339;BME280;11841;49.368;20.962;2024-01-30T11:26:02;97577.22;;;1.31;83.26
23339;BME280;11841;49.368;20.962;2024-01-30T11:28:52;97580.81;;;1.41;83.08
23339;BME280;11841;49.368;20.962;2024-01-30T11:31:37;97574.06;;;1.49;83.26
23339;BME280;11841;49.368;20.962;2024-01-30T11:34:23;97565.38;;;1.60;83.12
23339;BME280;11841;49.368;20.962;2024-01-30T11:37:09;97570.16;;;1.66;83.71
23339;BME280;11841;49.368;20.962;2024-01-30T11:39:54;97572.66;;;1.78;83.32
23339;BME280;11841;49.368;20.962;2024-01-30T11:42:40;97567.69;;;1.86;82.89
23339;BME280;11841;49.368;20.962;2024-01-30T11:45:26;97560.06;;;1.94;83.68
23339;BME280;11841;49.368;20.962;2024-01-30T11:48:12;97556.03;;;2.01;83.40
23339;BME280;11841;49.368;20.962;2024-01-30T11:50:58;97560.56;;;2.10;83.06
23339;BME280;11841;49.368;20.962;2024-01-30T11:53:43;97549.34;;;2.19;83.07
23339;BME280;11841;49.368;20.962;2024-01-30T11:56:28;97534.59;;;2.29;83.08
23339;BME280;11841;49.368;20.962;2024-01-30T11:59:14;97548.38;;;2.42;82.60
23339;BME280;11841;49.368;20.962;2024-01-30T12:01:59;97548.59;;;2.51;83.00
23339;BME280;11841;49.368;20.962;2024-01-30T12:04:45;97540.94;;;2.59;82.18
23339;BME280;11841;49.368;20.962;2024-01-30T12:07:30;97531.91;;;2.63;81.78
23339;BME280;11841;49.368;20.962;2024-01-30T12:10:17;97534.47;;;2.74;81.67
23339;BME280;11841;49.368;20.962;2024-01-30T12:13:05;97534.78;;;2.80;81.78
23339;BME280;11841;49.368;20.962;2024-01-30T12:15:50;97540.13;;;2.90;81.21
23339;BME280;11841;49.368;20.962;2024-01-30T12:18:36;97534.50;;;2.94;81.49
23339;BME280;11841;49.368;20.962;2024-01-30T12:21:21;97519.81;;;3.03;81.34
23339;BME280;11841;49.368;20.962;2024-01-30T12:24:07;97526.09;;;3.11;81.77
23339;BME280;11841;49.368;20.962;2024-01-30T12:26:56;97518.28;;;3.21;81.91
23339;BME280;11841;49.368;20.962;2024-01-30T12:29:42;97516.13;;;3.26;80.38
23339;BME280;11841;49.368;20.962;2024-01-30T12:32:27;97519.44;;;3.28;80.31
23339;BME280;11841;49.368;20.962;2024-01-30T12:35:14;97504.88;;;3.35;80.02
23339;BME280;11841;49.368;20.962;2024-01-30T12:37:59;97505.31;;;3.40;80.23
23339;BME280;11841;49.368;20.962;2024-01-30T12:40:45;97500.50;;;3.45;80.49
23339;BME280;11841;49.368;20.962;2024-01-30T12:43:32;97500.81;;;3.51;80.03
23339;BME280;11841;49.368;20.962;2024-01-30T12:46:31;97502.09;;;3.57;80.01
23339;BME280;11841;49.368;20.962;2024-01-30T12:49:18;97503.88;;;3.56;79.59
23339;BME280;11841;49.368;20.962;2024-01-30T12:52:04;97506.84;;;3.63;79.48
23339;BME280;11841;49.368;20.962;2024-01-30T12:54:49;97494.41;;;3.65;79.67
23339;BME280;11841;49.368;20.962;2024-01-30T12:57:35;97503.41;;;3.72;79.42
23339;BME280;11841;49.368;20.962;2024-01-30T13:00:20;97498.88;;;3.74;78.98
23339;BME280;11841;49.368;20.962;2024-01-30T13:03:05;97500.41;;;3.77;79.52
23339;BME280;11841;49.368;20.962;2024-01-30T13:05:51;97505.53;;;3.78;79.02
23339;BME280;11841;49.368;20.962;2024-01-30T13:08:36;97497.38;;;3.81;78.89
23339;BME280;11841;49.368;20.962;2024-01-30T13:11:21;97493.91;;;3.81;78.24
23339;BME280;11841;49.368;20.962;2024-01-30T13:14:07;97493.28;;;3.88;78.47
23339;BME280;11841;49.368;20.962;2024-01-30T13:16:52;97485.84;;;3.93;78.42
23339;BME280;11841;49.368;20.962;2024-01-30T13:19:37;97490.09;;;3.94;78.10
23339;BME280;11841;49.368;20.962;2024-01-30T13:22:23;97488.19;;;3.96;78.71
23339;BME280;11841;49.368;20.962;2024-01-30T13:25:09;97499.13;;;4.01;77.87
23339;BME280;11841;49.368;20.962;2024-01-30T13:27:54;97491.66;;;3.97;77.74
23339;BME280;11841;49.368;20.962;2024-01-30T13:30:40;97493.88;;;4.01;77.92
23339;BME280;11841;49.368;20.962;2024-01-30T13:33:26;97475.50;;;4.01;77.40
23339;BME280;11841;49.368;20.962;2024-01-30T13:36:11;97485.28;;;3.99;77.57
23339;BME280;11841;49.368;20.962;2024-01-30T13:38:57;97481.59;;;4.02;77.42
23339;BME280;11841;49.368;20.962;2024-01-30T13:41:42;97485.28;;;3.99;77.72
23339;BME280;11841;49.368;20.962;2024-01-30T13:44:28;97485.56;;;3.96;77.37
23339;BME280;11841;49.368;20.962;2024-01-30T13:47:13;97486.41;;;3.97;77.63
23339;BME280;11841;49.368;20.962;2024-01-30T13:49:59;97483.38;;;4.01;77.76
23339;BME280;11841;49.368;20.962;2024-01-30T13:52:44;97476.19;;;4.03;77.15
23339;BME280;11841;49.368;20.962;2024-01-30T13:55:30;97476.91;;;4.05;77.10
23339;BME280;11841;49.368;20.962;2024-01-30T13:58:16;97475.91;;;4.06;77.55
23339;BME280;11841;49.368;20.962;2024-01-30T14:01:01;97465.84;;;4.02;76.66
23339;BME280;11841;49.368;20.962;2024-01-30T14:03:46;97470.38;;;4.00;77.01
23339;BME280;11841;49.368;20.962;2024-01-30T14:06:32;97468.47;;;4.02;77.56
23339;BME280;11841;49.368;20.962;2024-01-30T14:09:17;97473.28;;;4.06;77.13
23339;BME280;11841;49.368;20.962;2024-01-30T14:12:02;97471.94;;;4.12;76.85
23339;BME280;11841;49.368;20.962;2024-01-30T14:14:48;97472.47;;;4.06;76.44
23339;BME280;11841;49.368;20.962;2024-01-30T14:17:33;97482.28;;;4.04;76.88
23339;BME280;11841;49.368;20.962;2024-01-30T14:20:19;97488.19;;;4.06;76.98
23339;BME280;11841;49.368;20.962;2024-01-30T14:23:04;97479.47;;;3.96;76.95
23339;BME280;11841;49.368;20.962;2024-01-30T14:25:49;97482.78;;;3.88;76.96
23339;BME280;11841;49.368;20.962;2024-01-30T14:28:36;97481.66;;;3.91;77.06
23339;BME280;11841;49.368;20.962;2024-01-30T14:31:21;97486.63;;;3.84;76.21